sensor_id;sensor_type;location;lat;lon;timestamp;P1;durP1;ratioP1;P2;durP2;ratioP2
10126;SDS011;13080;42.608;23.362;2023-05-07T00:02:16;10.43;;;3.33;;
10126;SDS011;13080;42.608;23.362;2023-05-07T00:04:42;4.18;;;3.05;;
10126;SDS011;13080;42.608;23.362;2023-05-07T00:07:10;9.65;;;3.80;;
10126;SDS011;13080;42.608;23.362;2023-05-07T00:09:37;5.90;;;4.90;;
10126;SDS011;13080;42.608;23.362;2023-05-07T00:12:03;5.85;;;4.10;;
10126;SDS011;13080;42.608;23.362;2023-05-07T00:14:30;7.15;;;3.75;;
10126;SDS011;13080;42.608;23.362;2023-05-07T00:16:57;4.32;;;3.38;;
10126;SDS011;13080;42.608;23.362;2023-05-07T00:19:25;5.65;;;3.67;;
10126;SDS011;13080;42.608;23.362;2023-05-07T00:21:52;7.55;;;3.60;;
10126;SDS011;13080;42.608;23.362;2023-05-07T00:24:19;3.55;;;2.88;;
10126;SDS011;13080;42.608;23.362;2023-05-07T00:26:46;5.97;;;3.33;;
10126;SDS011;13080;42.608;23.362;2023-05-07T00:29:13;5.30;;;3.60;;
10126;SDS011;13080;42.608;23.362;2023-05-07T00:31:40;4.75;;;3.33;;
10126;SDS011;13080;42.608;23.362;2023-05-07T00:34:06;5.80;;;3.50;;
10126;SDS011;13080;42.608;23.362;2023-05-07T00:36:35;4.25;;;3.85;;
10126;SDS011;13080;42.608;23.362;2023-05-07T00:39:01;5.45;;;3.25;;
10126;SDS011;13080;42.608;23.362;2023-05-07T00:41:28;3.78;;;3.47;;
10126;SDS011;13080;42.608;23.362;2023-05-07T00:43:56;6.53;;;3.72;;
10126;SDS011;13080;42.608;23.362;2023-05-07T00:46:22;9.98;;;5.78;;
10126;SDS011;13080;42.608;23.362;2023-05-07T00:48:49;6.57;;;4.85;;
10126;SDS011;13080;42.608;23.362;2023-05-07T00:51:17;6.95;;;4.50;;
10126;SDS011;13080;42.608;23.362;2023-05-07T00:53:45;6.72;;;4.00;;
10126;SDS011;13080;42.608;23.362;2023-05-07T00:56:12;4.45;;;3.58;;
10126;SDS011;13080;42.608;23.362;2023-05-07T00:58:40;5.95;;;4.07;;
10126;SDS011;13080;42.608;23.362;2023-05-07T01:01:06;7.22;;;4.20;;
10126;SDS011;13080;42.608;23.362;2023-05-07T01:03:33;4.97;;;3.95;;
10126;SDS011;13080;42.608;23.362;2023-05-07T01:06:00;8.02;;;5.03;;
10126;SDS011;13080;42.608;23.362;2023-05-07T01:08:28;7.30;;;5.18;;
10126;SDS011;13080;42.608;23.362;2023-05-07T01:10:58;6.25;;;4.25;;
10126;SDS011;13080;42.608;23.362;2023-05-07T01:13:26;4.80;;;3.97;;
10126;SDS011;13080;42.608;23.362;2023-05-07T01:15:53;6.00;;;3.45;;
10126;SDS011;13080;42.608;23.362;2023-05-07T01:18:20;7.88;;;3.80;;
10126;SDS011;13080;42.608;23.362;2023-05-07T01:20:47;8.52;;;4.20;;
10126;SDS011;13080;42.608;23.362;2023-05-07T01:23:15;5.60;;;3.80;;
10126;SDS011;13080;42.608;23.362;2023-05-07T01:25:46;4.43;;;3.53;;
10126;SDS011;13080;42.608;23.362;2023-05-07T01:28:17;7.45;;;3.75;;
10126;SDS011;13080;42.608;23.362;2023-05-07T01:30:44;5.50;;;4.07;;
10126;SDS011;13080;42.608;23.362;2023-05-07T01:33:29;5.05;;;3.80;;
10126;SDS011;13080;42.608;23.362;2023-05-07T01:38:30;5.55;;;3.60;;
10126;SDS011;13080;42.608;23.362;2023-05-07T01:40:57;8.43;;;4.13;;
10126;SDS011;13080;42.608;23.362;2023-05-07T01:43:24;6.75;;;4.00;;
10126;SDS011;13080;42.608;23.362;2023-05-07T01:45:51;8.52;;;4.10;;
10126;SDS011;13080;42.608;23.362;2023-05-07T01:48:19;4.80;;;3.85;;
10126;SDS011;13080;42.608;23.362;2023-05-07T01:50:46;6.47;;;4.10;;
10126;SDS011;13080;42.608;23.362;2023-05-07T01:53:14;5.97;;;4.22;;
10126;SDS011;13080;42.608;23.362;2023-05-07T01:55:42;5.22;;;3.88;;
10126;SDS011;13080;42.608;23.362;2023-05-07T01:58:09;6.43;;;4.10;;
10126;SDS011;13080;42.608;23.362;2023-05-07T02:00:35;6.30;;;3.67;;
10126;SDS011;13080;42.608;23.362;2023-05-07T02:03:02;6.95;;;4.47;;
10126;SDS011;13080;42.608;23.362;2023-05-07T02:05:29;6.18;;;3.88;;
10126;SDS011;13080;42.608;23.362;2023-05-07T02:07:56;6.30;;;4.30;;
10126;SDS011;13080;42.608;23.362;2023-05-07T02:10:23;7.75;;;3.72;;
10126;SDS011;13080;42.608;23.362;2023-05-07T02:12:51;5.65;;;3.97;;
10126;SDS011;13080;42.608;23.362;2023-05-07T02:15:17;5.20;;;3.65;;
10126;SDS011;13080;42.608;23.362;2023-05-07T02:18:00;5.90;;;3.83;;
10126;SDS011;13080;42.608;23.362;2023-05-07T02:20:28;7.43;;;4.55;;
10126;SDS011;13080;42.608;23.362;2023-05-07T02:22:55;5.50;;;3.72;;
10126;SDS011;13080;42.608;23.362;2023-05-07T02:25:22;7.40;;;4.03;;
10126;SDS011;13080;42.608;23.362;2023-05-07T02:27:48;6.68;;;4.10;;
10126;SDS011;13080;42.608;23.362;2023-05-07T02:30:17;6.03;;;3.58;;
10126;SDS011;13080;42.608;23.362;2023-05-07T02:32:46;6.70;;;4.78;;
10126;SDS011;13080;42.608;23.362;2023-05-07T02:35:12;12.18;;;10.93;;
10126;SDS011;13080;42.608;23.362;2023-05-07T02:37:39;4.90;;;4.13;;
10126;SDS011;13080;42.608;23.362;2023-05-07T02:40:06;21.98;;;19.65;;
10126;SDS011;13080;42.608;23.362;2023-05-07T02:42:34;21.73;;;19.48;;
10126;SDS011;13080;42.608;23.362;2023-05-07T02:45:02;14.30;;;12.90;;
10126;SDS011;13080;42.608;23.362;2023-05-07T02:47:29;9.80;;;8.77;;
10126;SDS011;13080;42.608;23.362;2023-05-07T02:49:56;10.05;;;9.15;;
10126;SDS011;13080;42.608;23.362;2023-05-07T02:52:23;12.77;;;11.48;;
10126;SDS011;13080;42.608;23.362;2023-05-07T02:54:50;6.93;;;6.10;;
10126;SDS011;13080;42.608;23.362;2023-05-07T02:57:16;6.45;;;5.65;;
10126;SDS011;13080;42.608;23.362;2023-05-07T02:59:43;9.02;;;6.20;;
10126;SDS011;13080;42.608;23.362;2023-05-07T03:02:11;7.53;;;4.50;;
10126;SDS011;13080;42.608;23.362;2023-05-07T03:04:39;6.05;;;4.25;;
10126;SDS011;13080;42.608;23.362;2023-05-07T03:07:06;7.13;;;4.75;;
10126;SDS011;13080;42.608;23.362;2023-05-07T03:09:32;6.25;;;4.68;;
10126;SDS011;13080;42.608;23.362;2023-05-07T03:11:59;11.18;;;4.80;;
10126;SDS011;13080;42.608;23.362;2023-05-07T03:14:26;8.55;;;4.30;;
10126;SDS011;13080;42.608;23.362;2023-05-07T03:16:53;7.28;;;4.60;;
10126;SDS011;13080;42.608;23.362;2023-05-07T03:19:21;7.28;;;4.93;;
10126;SDS011;13080;42.608;23.362;2023-05-07T03:21:48;7.10;;;5.93;;
10126;SDS011;13080;42.608;23.362;2023-05-07T03:24:15;7.05;;;5.20;;
10126;SDS011;13080;42.608;23.362;2023-05-07T03:26:41;7.95;;;6.05;;
10126;SDS011;13080;42.608;23.362;2023-05-07T03:29:08;8.98;;;5.72;;
10126;SDS011;13080;42.608;23.362;2023-05-07T03:31:35;8.98;;;5.55;;
10126;SDS011;13080;42.608;23.362;2023-05-07T03:34:01;8.50;;;6.00;;
10126;SDS011;13080;42.608;23.362;2023-05-07T03:36:29;11.82;;;8.15;;
10126;SDS011;13080;42.608;23.362;2023-05-07T03:38:56;10.75;;;6.82;;
10126;SDS011;13080;42.608;23.362;2023-05-07T03:41:23;8.23;;;5.93;;
10126;SDS011;13080;42.608;23.362;2023-05-07T03:43:50;10.98;;;6.82;;
10126;SDS011;13080;42.608;23.362;2023-05-07T03:46:17;10.95;;;6.63;;
10126;SDS011;13080;42.608;23.362;2023-05-07T03:48:44;10.93;;;6.28;;
10126;SDS011;13080;42.608;23.362;2023-05-07T03:51:10;8.68;;;7.00;;
10126;SDS011;13080;42.608;23.362;2023-05-07T03:53:38;9.32;;;6.45;;
10126;SDS011;13080;42.608;23.362;2023-05-07T03:56:05;9.02;;;6.30;;
10126;SDS011;13080;42.608;23.362;2023-05-07T03:58:32;11.23;;;6.90;;
10126;SDS011;13080;42.608;23.362;2023-05-07T04:00:59;9.10;;;6.53;;
10126;SDS011;13080;42.608;23.362;2023-05-07T04:03:26;9.13;;;6.95;;
10126;SDS011;13080;42.608;23.362;2023-05-07T04:05:53;11.52;;;6.72;;
10126;SDS011;13080;42.608;23.362;2023-05-07T04:08:19;11.80;;;6.70;;
10126;SDS011;13080;42.608;23.362;2023-05-07T04:10:47;8.65;;;6.15;;
10126;SDS011;13080;42.608;23.362;2023-05-07T04:13:14;8.75;;;6.85;;
10126;SDS011;13080;42.608;23.362;2023-05-07T04:15:41;10.45;;;7.03;;
10126;SDS011;13080;42.608;23.362;2023-05-07T04:18:07;9.60;;;6.65;;
10126;SDS011;13080;42.608;23.362;2023-05-07T04:20:34;10.10;;;6.32;;
10126;SDS011;13080;42.608;23.362;2023-05-07T04:23:02;8.20;;;5.85;;
10126;SDS011;13080;42.608;23.362;2023-05-07T04:25:29;6.57;;;5.28;;
10126;SDS011;13080;42.608;23.362;2023-05-07T04:27:57;10.95;;;5.78;;
10126;SDS011;13080;42.608;23.362;2023-05-07T04:30:24;11.15;;;5.65;;
10126;SDS011;13080;42.608;23.362;2023-05-07T04:33:08;7.65;;;6.13;;
10126;SDS011;13080;42.608;23.362;2023-05-07T04:35:35;7.90;;;5.47;;
10126;SDS011;13080;42.608;23.362;2023-05-07T04:38:02;9.13;;;6.03;;
10126;SDS011;13080;42.608;23.362;2023-05-07T04:40:29;9.10;;;6.70;;
10126;SDS011;13080;42.608;23.362;2023-05-07T04:42:57;11.77;;;7.60;;
10126;SDS011;13080;42.608;23.362;2023-05-07T04:45:24;10.07;;;6.25;;
10126;SDS011;13080;42.608;23.362;2023-05-07T04:47:50;9.45;;;6.30;;
10126;SDS011;13080;42.608;23.362;2023-05-07T04:50:17;13.30;;;6.80;;
10126;SDS011;13080;42.608;23.362;2023-05-07T04:52:45;11.43;;;5.80;;
10126;SDS011;13080;42.608;23.362;2023-05-07T04:55:11;10.43;;;6.07;;
10126;SDS011;13080;42.608;23.362;2023-05-07T04:57:38;11.02;;;6.55;;
10126;SDS011;13080;42.608;23.362;2023-05-07T05:00:08;9.43;;;5.88;;
10126;SDS011;13080;42.608;23.362;2023-05-07T05:02:35;10.95;;;6.63;;
10126;SDS011;13080;42.608;23.362;2023-05-07T05:05:02;11.13;;;7.18;;
10126;SDS011;13080;42.608;23.362;2023-05-07T05:07:29;14.90;;;8.00;;
10126;SDS011;13080;42.608;23.362;2023-05-07T05:09:56;13.02;;;8.05;;
10126;SDS011;13080;42.608;23.362;2023-05-07T05:12:23;12.45;;;7.88;;
10126;SDS011;13080;42.608;23.362;2023-05-07T05:14:50;12.45;;;7.47;;
10126;SDS011;13080;42.608;23.362;2023-05-07T05:17:18;12.93;;;7.55;;
10126;SDS011;13080;42.608;23.362;2023-05-07T05:19:45;10.45;;;7.22;;
10126;SDS011;13080;42.608;23.362;2023-05-07T05:22:12;10.30;;;6.93;;
10126;SDS011;13080;42.608;23.362;2023-05-07T05:24:38;10.95;;;7.03;;
10126;SDS011;13080;42.608;23.362;2023-05-07T05:27:05;10.52;;;6.85;;
10126;SDS011;13080;42.608;23.362;2023-05-07T05:29:32;10.35;;;6.97;;
10126;SDS011;13080;42.608;23.362;2023-05-07T05:31:58;12.00;;;7.72;;
10126;SDS011;13080;42.608;23.362;2023-05-07T05:34:26;15.10;;;9.00;;
10126;SDS011;13080;42.608;23.362;2023-05-07T05:36:53;14.05;;;8.68;;
10126;SDS011;13080;42.608;23.362;2023-05-07T05:39:20;15.70;;;8.98;;
10126;SDS011;13080;42.608;23.362;2023-05-07T05:41:48;16.73;;;8.38;;
10126;SDS011;13080;42.608;23.362;2023-05-07T05:44:15;14.93;;;8.55;;
10126;SDS011;13080;42.608;23.362;2023-05-07T05:46:41;15.45;;;8.98;;
10126;SDS011;13080;42.608;23.362;2023-05-07T05:49:08;11.00;;;7.10;;
10126;SDS011;13080;42.608;23.362;2023-05-07T05:51:36;15.75;;;7.70;;
10126;SDS011;13080;42.608;23.362;2023-05-07T05:54:03;13.00;;;8.00;;
10126;SDS011;13080;42.608;23.362;2023-05-07T05:56:30;14.95;;;8.50;;
10126;SDS011;13080;42.608;23.362;2023-05-07T05:58:57;14.45;;;7.95;;
10126;SDS011;13080;42.608;23.362;2023-05-07T06:01:24;12.80;;;7.38;;
10126;SDS011;13080;42.608;23.362;2023-05-07T06:03:51;13.77;;;8.27;;
10126;SDS011;13080;42.608;23.362;2023-05-07T06:06:18;13.32;;;8.30;;
10126;SDS011;13080;42.608;23.362;2023-05-07T06:08:46;17.23;;;8.43;;
10126;SDS011;13080;42.608;23.362;2023-05-07T06:11:13;13.60;;;8.23;;
10126;SDS011;13080;42.608;23.362;2023-05-07T06:13:40;13.18;;;8.02;;
10126;SDS011;13080;42.608;23.362;2023-05-07T06:16:07;11.52;;;7.43;;
10126;SDS011;13080;42.608;23.362;2023-05-07T06:18:33;16.48;;;8.77;;
10126;SDS011;13080;42.608;23.362;2023-05-07T06:21:01;12.02;;;7.85;;
10126;SDS011;13080;42.608;23.362;2023-05-07T06:23:27;11.95;;;7.57;;
10126;SDS011;13080;42.608;23.362;2023-05-07T06:25:56;13.63;;;8.65;;
10126;SDS011;13080;42.608;23.362;2023-05-07T06:28:22;13.13;;;7.45;;
10126;SDS011;13080;42.608;23.362;2023-05-07T06:30:49;12.50;;;8.15;;
10126;SDS011;13080;42.608;23.362;2023-05-07T06:33:16;9.95;;;6.93;;
10126;SDS011;13080;42.608;23.362;2023-05-07T06:35:42;9.48;;;5.55;;
10126;SDS011;13080;42.608;23.362;2023-05-07T06:38:09;12.40;;;6.63;;
10126;SDS011;13080;42.608;23.362;2023-05-07T06:40:37;9.98;;;6.90;;
10126;SDS011;13080;42.608;23.362;2023-05-07T06:43:05;10.40;;;6.70;;
10126;SDS011;13080;42.608;23.362;2023-05-07T06:45:32;11.48;;;6.50;;
10126;SDS011;13080;42.608;23.362;2023-05-07T06:47:58;7.82;;;5.38;;
10126;SDS011;13080;42.608;23.362;2023-05-07T06:50:25;9.02;;;6.07;;
10126;SDS011;13080;42.608;23.362;2023-05-07T06:52:52;12.55;;;6.50;;
10126;SDS011;13080;42.608;23.362;2023-05-07T06:55:19;12.77;;;6.40;;
10126;SDS011;13080;42.608;23.362;2023-05-07T06:57:46;11.43;;;6.63;;
10126;SDS011;13080;42.608;23.362;2023-05-07T07:00:14;11.38;;;5.72;;
10126;SDS011;13080;42.608;23.362;2023-05-07T07:02:41;11.13;;;5.43;;
10126;SDS011;13080;42.608;23.362;2023-05-07T07:05:08;8.13;;;5.80;;
10126;SDS011;13080;42.608;23.362;2023-05-07T07:07:35;9.40;;;6.07;;
10126;SDS011;13080;42.608;23.362;2023-05-07T07:10:02;8.50;;;5.82;;
10126;SDS011;13080;42.608;23.362;2023-05-07T07:12:29;8.73;;;5.35;;
10126;SDS011;13080;42.608;23.362;2023-05-07T07:14:56;10.30;;;5.90;;
10126;SDS011;13080;42.608;23.362;2023-05-07T07:17:24;7.72;;;5.68;;
10126;SDS011;13080;42.608;23.362;2023-05-07T07:19:51;10.18;;;5.93;;
10126;SDS011;13080;42.608;23.362;2023-05-07T07:22:18;9.98;;;5.93;;
10126;SDS011;13080;42.608;23.362;2023-05-07T07:24:44;12.50;;;5.43;;
10126;SDS011;13080;42.608;23.362;2023-05-07T07:27:11;7.93;;;5.53;;
10126;SDS011;13080;42.608;23.362;2023-05-07T07:29:38;7.75;;;5.30;;
10126;SDS011;13080;42.608;23.362;2023-05-07T07:32:04;22.83;;;11.27;;
10126;SDS011;13080;42.608;23.362;2023-05-07T07:34:33;8.48;;;5.18;;
10126;SDS011;13080;42.608;23.362;2023-05-07T07:36:59;6.72;;;5.05;;
10126;SDS011;13080;42.608;23.362;2023-05-07T07:39:30;9.73;;;4.75;;
10126;SDS011;13080;42.608;23.362;2023-05-07T07:41:57;7.78;;;5.47;;
10126;SDS011;13080;42.608;23.362;2023-05-07T07:44:23;9.35;;;5.70;;
10126;SDS011;13080;42.608;23.362;2023-05-07T07:46:50;6.82;;;4.07;;
10126;SDS011;13080;42.608;23.362;2023-05-07T07:49:17;5.18;;;4.25;;
10126;SDS011;13080;42.608;23.362;2023-05-07T07:51:45;15.02;;;4.35;;
10126;SDS011;13080;42.608;23.362;2023-05-07T07:54:12;6.43;;;4.95;;
10126;SDS011;13080;42.608;23.362;2023-05-07T07:56:39;11.32;;;4.07;;
10126;SDS011;13080;42.608;23.362;2023-05-07T07:59:06;6.88;;;3.85;;
10126;SDS011;13080;42.608;23.362;2023-05-07T08:01:32;7.20;;;4.03;;
10126;SDS011;13080;42.608;23.362;2023-05-07T08:03:59;6.72;;;4.97;;
10126;SDS011;13080;42.608;23.362;2023-05-07T08:06:28;7.43;;;4.93;;
10126;SDS011;13080;42.608;23.362;2023-05-07T08:08:56;10.70;;;5.90;;
10126;SDS011;13080;42.608;23.362;2023-05-07T08:11:23;7.00;;;5.13;;
10126;SDS011;13080;42.608;23.362;2023-05-07T08:13:50;7.13;;;5.60;;
10126;SDS011;13080;42.608;23.362;2023-05-07T08:16:17;9.15;;;5.60;;
10126;SDS011;13080;42.608;23.362;2023-05-07T08:18:44;9.85;;;5.50;;
10126;SDS011;13080;42.608;23.362;2023-05-07T08:21:10;10.50;;;6.00;;
10126;SDS011;13080;42.608;23.362;2023-05-07T08:23:37;13.27;;;6.90;;
10126;SDS011;13080;42.608;23.362;2023-05-07T08:26:05;15.35;;;6.85;;
10126;SDS011;13080;42.608;23.362;2023-05-07T08:28:34;14.32;;;7.13;;
10126;SDS011;13080;42.608;23.362;2023-05-07T08:31:01;9.82;;;5.40;;
10126;SDS011;13080;42.608;23.362;2023-05-07T08:33:28;10.13;;;5.85;;
10126;SDS011;13080;42.608;23.362;2023-05-07T08:35:56;7.20;;;4.30;;
10126;SDS011;13080;42.608;23.362;2023-05-07T08:38:22;6.65;;;4.22;;
10126;SDS011;13080;42.608;23.362;2023-05-07T08:40:49;7.38;;;5.05;;
10126;SDS011;13080;42.608;23.362;2023-05-07T08:43:17;8.27;;;4.78;;
10126;SDS011;13080;42.608;23.362;2023-05-07T08:45:45;5.15;;;4.25;;
10126;SDS011;13080;42.608;23.362;2023-05-07T08:48:18;5.63;;;3.95;;
10126;SDS011;13080;42.608;23.362;2023-05-07T08:50:50;10.05;;;5.22;;
10126;SDS011;13080;42.608;23.362;2023-05-07T08:53:17;5.57;;;4.28;;
10126;SDS011;13080;42.608;23.362;2023-05-07T08:55:44;9.20;;;4.95;;
10126;SDS011;13080;42.608;23.362;2023-05-07T08:58:12;7.07;;;5.20;;
10126;SDS011;13080;42.608;23.362;2023-05-07T09:00:40;7.50;;;4.63;;
10126;SDS011;13080;42.608;23.362;2023-05-07T09:03:08;6.57;;;5.00;;
10126;SDS011;13080;42.608;23.362;2023-05-07T09:05:37;6.30;;;4.45;;
10126;SDS011;13080;42.608;23.362;2023-05-07T09:08:05;9.25;;;5.40;;
10126;SDS011;13080;42.608;23.362;2023-05-07T09:10:33;12.80;;;5.40;;
10126;SDS011;13080;42.608;23.362;2023-05-07T09:13:00;6.50;;;4.63;;
10126;SDS011;13080;42.608;23.362;2023-05-07T09:15:27;10.13;;;4.70;;
10126;SDS011;13080;42.608;23.362;2023-05-07T09:17:56;7.38;;;5.18;;
10126;SDS011;13080;42.608;23.362;2023-05-07T09:20:26;9.88;;;4.55;;
10126;SDS011;13080;42.608;23.362;2023-05-07T09:22:55;9.73;;;4.78;;
10126;SDS011;13080;42.608;23.362;2023-05-07T09:25:27;5.45;;;4.88;;
10126;SDS011;13080;42.608;23.362;2023-05-07T09:27:55;13.70;;;4.65;;
10126;SDS011;13080;42.608;23.362;2023-05-07T09:30:21;8.13;;;4.80;;
10126;SDS011;13080;42.608;23.362;2023-05-07T09:32:48;7.57;;;4.63;;
10126;SDS011;13080;42.608;23.362;2023-05-07T09:35:17;8.40;;;4.70;;
10126;SDS011;13080;42.608;23.362;2023-05-07T09:37:46;7.70;;;4.55;;
10126;SDS011;13080;42.608;23.362;2023-05-07T09:40:19;6.50;;;4.03;;
10126;SDS011;13080;42.608;23.362;2023-05-07T09:42:47;8.13;;;4.18;;
10126;SDS011;13080;42.608;23.362;2023-05-07T09:45:14;7.55;;;4.22;;
10126;SDS011;13080;42.608;23.362;2023-05-07T09:47:41;7.45;;;4.07;;
10126;SDS011;13080;42.608;23.362;2023-05-07T09:50:10;5.50;;;4.40;;
10126;SDS011;13080;42.608;23.362;2023-05-07T09:52:41;7.68;;;4.78;;
10126;SDS011;13080;42.608;23.362;2023-05-07T09:55:10;7.22;;;4.88;;
10126;SDS011;13080;42.608;23.362;2023-05-07T09:57:38;7.30;;;4.60;;
10126;SDS011;13080;42.608;23.362;2023-05-07T10:00:06;8.00;;;3.50;;
10126;SDS011;13080;42.608;23.362;2023-05-07T10:02:35;5.90;;;3.67;;
10126;SDS011;13080;42.608;23.362;2023-05-07T10:05:03;6.03;;;3.78;;
10126;SDS011;13080;42.608;23.362;2023-05-07T10:07:30;6.03;;;3.88;;
10126;SDS011;13080;42.608;23.362;2023-05-07T10:09:58;7.22;;;4.30;;
10126;SDS011;13080;42.608;23.362;2023-05-07T10:12:25;7.57;;;3.50;;
10126;SDS011;13080;42.608;23.362;2023-05-07T10:14:53;5.30;;;3.80;;
10126;SDS011;13080;42.608;23.362;2023-05-07T10:17:21;4.55;;;3.50;;
10126;SDS011;13080;42.608;23.362;2023-05-07T10:19:49;4.60;;;3.42;;
10126;SDS011;13080;42.608;23.362;2023-05-07T10:22:19;5.00;;;3.97;;
10126;SDS011;13080;42.608;23.362;2023-05-07T10:24:47;7.65;;;3.70;;
10126;SDS011;13080;42.608;23.362;2023-05-07T10:27:19;4.72;;;4.00;;
10126;SDS011;13080;42.608;23.362;2023-05-07T10:29:50;7.93;;;4.55;;
10126;SDS011;13080;42.608;23.362;2023-05-07T10:32:30;7.40;;;4.63;;
10126;SDS011;13080;42.608;23.362;2023-05-07T10:35:04;6.97;;;4.57;;
10126;SDS011;13080;42.608;23.362;2023-05-07T10:37:36;11.70;;;5.07;;
10126;SDS011;13080;42.608;23.362;2023-05-07T10:40:04;9.27;;;5.22;;
10126;SDS011;13080;42.608;23.362;2023-05-07T10:42:34;10.75;;;5.55;;
10126;SDS011;13080;42.608;23.362;2023-05-07T10:45:11;8.50;;;5.20;;
10126;SDS011;13080;42.608;23.362;2023-05-07T10:50:41;6.70;;;4.68;;
10126;SDS011;13080;42.608;23.362;2023-05-07T10:53:21;4.82;;;3.90;;
10126;SDS011;13080;42.608;23.362;2023-05-07T10:58:54;7.30;;;4.75;;
10126;SDS011;13080;42.608;23.362;2023-05-07T11:04:15;8.75;;;5.18;;
10126;SDS011;13080;42.608;23.362;2023-05-07T11:10:05;8.35;;;5.07;;
10126;SDS011;13080;42.608;23.362;2023-05-07T11:12:54;8.80;;;4.35;;
10126;SDS011;13080;42.608;23.362;2023-05-07T11:15:35;5.85;;;4.18;;
10126;SDS011;13080;42.608;23.362;2023-05-07T11:18:03;9.25;;;4.20;;
10126;SDS011;13080;42.608;23.362;2023-05-07T11:20:46;9.10;;;4.70;;
10126;SDS011;13080;42.608;23.362;2023-05-07T11:26:43;7.00;;;4.72;;
10126;SDS011;13080;42.608;23.362;2023-05-07T11:31:40;11.73;;;7.22;;
10126;SDS011;13080;42.608;23.362;2023-05-07T11:34:07;7.57;;;5.07;;
10126;SDS011;13080;42.608;23.362;2023-05-07T11:36:35;5.35;;;4.85;;
10126;SDS011;13080;42.608;23.362;2023-05-07T11:39:22;7.88;;;4.10;;
10126;SDS011;13080;42.608;23.362;2023-05-07T11:41:51;5.07;;;4.38;;
10126;SDS011;13080;42.608;23.362;2023-05-07T11:44:17;6.03;;;3.95;;
10126;SDS011;13080;42.608;23.362;2023-05-07T11:46:45;6.57;;;4.15;;
10126;SDS011;13080;42.608;23.362;2023-05-07T11:49:12;7.93;;;4.28;;
10126;SDS011;13080;42.608;23.362;2023-05-07T11:51:39;6.57;;;4.10;;
10126;SDS011;13080;42.608;23.362;2023-05-07T11:54:07;4.57;;;3.65;;
10126;SDS011;13080;42.608;23.362;2023-05-07T11:56:36;5.07;;;4.57;;
10126;SDS011;13080;42.608;23.362;2023-05-07T11:59:04;6.20;;;4.40;;
10126;SDS011;13080;42.608;23.362;2023-05-07T12:01:31;7.53;;;4.03;;
10126;SDS011;13080;42.608;23.362;2023-05-07T12:03:59;5.22;;;4.38;;
10126;SDS011;13080;42.608;23.362;2023-05-07T12:08:56;4.80;;;4.10;;
10126;SDS011;13080;42.608;23.362;2023-05-07T12:11:23;5.38;;;4.07;;
10126;SDS011;13080;42.608;23.362;2023-05-07T12:13:50;6.28;;;4.18;;
10126;SDS011;13080;42.608;23.362;2023-05-07T12:16:17;5.13;;;4.30;;
10126;SDS011;13080;42.608;23.362;2023-05-07T12:18:45;5.90;;;4.47;;
10126;SDS011;13080;42.608;23.362;2023-05-07T12:21:14;4.25;;;3.85;;
10126;SDS011;13080;42.608;23.362;2023-05-07T12:23:42;4.88;;;3.53;;
10126;SDS011;13080;42.608;23.362;2023-05-07T12:26:09;5.07;;;3.70;;
10126;SDS011;13080;42.608;23.362;2023-05-07T12:28:36;5.72;;;4.38;;
10126;SDS011;13080;42.608;23.362;2023-05-07T12:31:04;6.20;;;5.00;;
10126;SDS011;13080;42.608;23.362;2023-05-07T12:33:31;4.65;;;3.80;;
10126;SDS011;13080;42.608;23.362;2023-05-07T12:35:58;4.72;;;4.05;;
10126;SDS011;13080;42.608;23.362;2023-05-07T12:38:32;7.53;;;4.03;;
10126;SDS011;13080;42.608;23.362;2023-05-07T12:41:01;4.50;;;3.58;;
10126;SDS011;13080;42.608;23.362;2023-05-07T12:43:29;5.57;;;3.88;;
10126;SDS011;13080;42.608;23.362;2023-05-07T12:45:56;6.60;;;3.97;;
10126;SDS011;13080;42.608;23.362;2023-05-07T12:48:26;7.10;;;3.92;;
10126;SDS011;13080;42.608;23.362;2023-05-07T12:50:53;5.53;;;3.75;;
10126;SDS011;13080;42.608;23.362;2023-05-07T12:53:20;4.60;;;3.67;;
10126;SDS011;13080;42.608;23.362;2023-05-07T12:55:51;5.20;;;3.65;;
10126;SDS011;13080;42.608;23.362;2023-05-07T12:58:19;8.48;;;4.07;;
10126;SDS011;13080;42.608;23.362;2023-05-07T13:00:47;6.13;;;4.10;;
10126;SDS011;13080;42.608;23.362;2023-05-07T13:03:20;8.38;;;3.88;;
10126;SDS011;13080;42.608;23.362;2023-05-07T13:05:48;4.68;;;4.13;;
10126;SDS011;13080;42.608;23.362;2023-05-07T13:08:23;11.60;;;4.03;;
10126;SDS011;13080;42.608;23.362;2023-05-07T13:10:52;7.38;;;3.88;;
10126;SDS011;13080;42.608;23.362;2023-05-07T13:13:19;8.23;;;4.00;;
10126;SDS011;13080;42.608;23.362;2023-05-07T13:15:46;7.03;;;3.95;;
10126;SDS011;13080;42.608;23.362;2023-05-07T13:18:13;6.53;;;3.67;;
10126;SDS011;13080;42.608;23.362;2023-05-07T13:20:39;4.93;;;3.45;;
10126;SDS011;13080;42.608;23.362;2023-05-07T13:23:06;6.32;;;3.75;;
10126;SDS011;13080;42.608;23.362;2023-05-07T13:25:33;4.60;;;3.72;;
10126;SDS011;13080;42.608;23.362;2023-05-07T13:28:01;5.40;;;4.22;;
10126;SDS011;13080;42.608;23.362;2023-05-07T13:30:29;5.60;;;3.20;;
10126;SDS011;13080;42.608;23.362;2023-05-07T13:32:58;6.40;;;3.20;;
10126;SDS011;13080;42.608;23.362;2023-05-07T13:35:25;4.78;;;3.17;;
10126;SDS011;13080;42.608;23.362;2023-05-07T13:37:52;7.32;;;3.28;;
10126;SDS011;13080;42.608;23.362;2023-05-07T13:40:19;4.03;;;3.22;;
10126;SDS011;13080;42.608;23.362;2023-05-07T13:42:46;6.85;;;3.75;;
10126;SDS011;13080;42.608;23.362;2023-05-07T13:45:15;4.57;;;3.60;;
10126;SDS011;13080;42.608;23.362;2023-05-07T13:47:42;3.50;;;3.10;;
10126;SDS011;13080;42.608;23.362;2023-05-07T13:50:09;3.92;;;3.50;;
10126;SDS011;13080;42.608;23.362;2023-05-07T13:52:39;3.45;;;2.83;;
10126;SDS011;13080;42.608;23.362;2023-05-07T13:55:08;6.53;;;4.20;;
10126;SDS011;13080;42.608;23.362;2023-05-07T13:57:35;5.95;;;3.42;;
10126;SDS011;13080;42.608;23.362;2023-05-07T14:00:02;4.35;;;2.83;;
10126;SDS011;13080;42.608;23.362;2023-05-07T14:02:31;7.38;;;3.33;;
10126;SDS011;13080;42.608;23.362;2023-05-07T14:04:58;3.65;;;2.88;;
10126;SDS011;13080;42.608;23.362;2023-05-07T14:07:24;3.03;;;2.72;;
10126;SDS011;13080;42.608;23.362;2023-05-07T14:09:51;4.40;;;3.15;;
10126;SDS011;13080;42.608;23.362;2023-05-07T14:12:18;5.30;;;4.05;;
10126;SDS011;13080;42.608;23.362;2023-05-07T14:14:45;5.95;;;3.40;;
10126;SDS011;13080;42.608;23.362;2023-05-07T14:17:12;7.70;;;3.53;;
10126;SDS011;13080;42.608;23.362;2023-05-07T14:19:40;5.30;;;3.13;;
10126;SDS011;13080;42.608;23.362;2023-05-07T14:22:07;4.85;;;3.38;;
10126;SDS011;13080;42.608;23.362;2023-05-07T14:24:33;3.50;;;2.92;;
10126;SDS011;13080;42.608;23.362;2023-05-07T14:27:00;4.20;;;3.33;;
10126;SDS011;13080;42.608;23.362;2023-05-07T14:29:27;4.63;;;3.17;;
10126;SDS011;13080;42.608;23.362;2023-05-07T14:31:54;5.78;;;3.55;;
10126;SDS011;13080;42.608;23.362;2023-05-07T14:34:20;5.57;;;3.47;;
10126;SDS011;13080;42.608;23.362;2023-05-07T14:36:48;2.92;;;2.60;;
10126;SDS011;13080;42.608;23.362;2023-05-07T14:39:15;5.30;;;2.72;;
10126;SDS011;13080;42.608;23.362;2023-05-07T14:41:42;2.55;;;2.35;;
10126;SDS011;13080;42.608;23.362;2023-05-07T14:44:08;4.05;;;2.65;;
10126;SDS011;13080;42.608;23.362;2023-05-07T14:46:35;3.65;;;2.83;;
10126;SDS011;13080;42.608;23.362;2023-05-07T14:49:02;5.32;;;2.33;;
10126;SDS011;13080;42.608;23.362;2023-05-07T14:51:29;5.47;;;2.58;;
10126;SDS011;13080;42.608;23.362;2023-05-07T14:53:57;4.65;;;2.55;;
10126;SDS011;13080;42.608;23.362;2023-05-07T14:56:25;3.55;;;2.88;;
10126;SDS011;13080;42.608;23.362;2023-05-07T14:58:52;3.50;;;2.50;;